sensor_id;sensor_type;location;lat;lon;timestamp;temperature;humidity
15717;DHT22;7960;50.908;4.204;2022-07-24T00:02:04;20.60;99.90
15717;DHT22;7960;50.908;4.204;2022-07-24T00:04:32;20.60;99.90
15717;DHT22;7960;50.908;4.204;2022-07-24T00:06:59;20.50;99.90
15717;DHT22;7960;50.908;4.204;2022-07-24T00:09:26;20.50;99.90
15717;DHT22;7960;50.908;4.204;2022-07-24T00:11:53;20.50;99.90
15717;DHT22;7960;50.908;4.204;2022-07-24T00:14:20;20.50;99.90
15717;DHT22;7960;50.908;4.204;2022-07-24T00:16:47;20.60;99.90
15717;DHT22;7960;50.908;4.204;2022-07-24T00:19:14;20.60;99.90
15717;DHT22;7960;50.908;4.204;2022-07-24T00:21:42;20.60;99.90
15717;DHT22;7960;50.908;4.204;2022-07-24T00:24:09;20.60;99.90
15717;DHT22;7960;50.908;4.204;2022-07-24T00:26:36;20.80;99.90
15717;DHT22;7960;50.908;4.204;2022-07-24T00:29:03;20.90;99.90
15717;DHT22;7960;50.908;4.204;2022-07-24T00:31:30;20.90;99.90
15717;DHT22;7960;50.908;4.204;2022-07-24T00:33:57;20.90;99.90
15717;DHT22;7960;50.908;4.204;2022-07-24T00:36:24;20.80;99.90
15717;DHT22;7960;50.908;4.204;2022-07-24T00:38:52;20.80;99.90
15717;DHT22;7960;50.908;4.204;2022-07-24T00:41:19;20.70;99.90
15717;DHT22;7960;50.908;4.204;2022-07-24T00:44:03;20.70;99.90
15717;DHT22;7960;50.908;4.204;2022-07-24T00:46:30;20.70;99.90
15717;DHT22;7960;50.908;4.204;2022-07-24T00:48:57;20.70;99.90
15717;DHT22;7960;50.908;4.204;2022-07-24T00:51:25;20.60;99.90
15717;DHT22;7960;50.908;4.204;2022-07-24T00:53:53;20.60;99.90
15717;DHT22;7960;50.908;4.204;2022-07-24T00:56:20;20.60;99.90
15717;DHT22;7960;50.908;4.204;2022-07-24T00:58:48;20.60;99.90
15717;DHT22;7960;50.908;4.204;2022-07-24T01:01:15;20.50;99.90
15717;DHT22;7960;50.908;4.204;2022-07-24T01:03:43;20.30;99.90
15717;DHT22;7960;50.908;4.204;2022-07-24T01:06:10;20.30;99.90
15717;DHT22;7960;50.908;4.204;2022-07-24T01:08:38;20.30;99.90
15717;DHT22;7960;50.908;4.204;2022-07-24T01:11:06;20.30;99.90
15717;DHT22;7960;50.908;4.204;2022-07-24T01:13:33;20.20;99.90
15717;DHT22;7960;50.908;4.204;2022-07-24T01:16:00;20.30;99.90
15717;DHT22;7960;50.908;4.204;2022-07-24T01:18:27;20.20;99.90
15717;DHT22;7960;50.908;4.204;2022-07-24T01:20:55;20.30;99.90
15717;DHT22;7960;50.908;4.204;2022-07-24T01:23:22;20.00;99.90
15717;DHT22;7960;50.908;4.204;2022-07-24T01:25:50;20.20;99.90
15717;DHT22;7960;50.908;4.204;2022-07-24T01:28:17;20.20;99.90
15717;DHT22;7960;50.908;4.204;2022-07-24T01:30:44;20.20;99.90
15717;DHT22;7960;50.908;4.204;2022-07-24T01:33:12;20.10;99.90
15717;DHT22;7960;50.908;4.204;2022-07-24T01:35:39;20.10;99.90
15717;DHT22;7960;50.908;4.204;2022-07-24T01:38:08;20.10;99.90
15717;DHT22;7960;50.908;4.204;2022-07-24T01:40:35;20.10;99.90
15717;DHT22;7960;50.908;4.204;2022-07-24T01:43:02;19.90;99.90
15717;DHT22;7960;50.908;4.204;2022-07-24T01:45:29;19.90;99.90
15717;DHT22;7960;50.908;4.204;2022-07-24T01:47:57;19.80;99.90
15717;DHT22;7960;50.908;4.204;2022-07-24T01:50:24;19.80;99.90
15717;DHT22;7960;50.908;4.204;2022-07-24T01:52:51;19.90;99.90
15717;DHT22;7960;50.908;4.204;2022-07-24T01:55:20;20.00;99.90
15717;DHT22;7960;50.908;4.204;2022-07-24T01:57:47;19.90;99.90
15717;DHT22;7960;50.908;4.204;2022-07-24T02:00:16;19.90;99.90
15717;DHT22;7960;50.908;4.204;2022-07-24T02:02:43;19.80;99.90
15717;DHT22;7960;50.908;4.204;2022-07-24T02:05:12;19.80;99.90
15717;DHT22;7960;50.908;4.204;2022-07-24T02:07:39;19.80;99.90
15717;DHT22;7960;50.908;4.204;2022-07-24T02:10:07;19.80;99.90
15717;DHT22;7960;50.908;4.204;2022-07-24T02:12:36;19.80;99.90
15717;DHT22;7960;50.908;4.204;2022-07-24T02:15:03;19.30;99.90
15717;DHT22;7960;50.908;4.204;2022-07-24T02:17:30;19.10;99.90
15717;DHT22;7960;50.908;4.204;2022-07-24T02:19:57;18.90;99.90
15717;DHT22;7960;50.908;4.204;2022-07-24T02:22:24;18.60;99.90
15717;DHT22;7960;50.908;4.204;2022-07-24T02:24:51;18.70;99.90
15717;DHT22;7960;50.908;4.204;2022-07-24T02:27:18;19.00;99.90
15717;DHT22;7960;50.908;4.204;2022-07-24T02:29:46;19.10;99.90
15717;DHT22;7960;50.908;4.204;2022-07-24T02:32:13;19.10;99.90
15717;DHT22;7960;50.908;4.204;2022-07-24T02:34:39;19.40;99.90
15717;DHT22;7960;50.908;4.204;2022-07-24T02:37:06;19.60;99.90
15717;DHT22;7960;50.908;4.204;2022-07-24T02:39:33;19.70;99.90
15717;DHT22;7960;50.908;4.204;2022-07-24T02:42:00;19.60;99.90
15717;DHT22;7960;50.908;4.204;2022-07-24T02:44:27;19.50;99.90
15717;DHT22;7960;50.908;4.204;2022-07-24T02:46:55;19.60;99.90
15717;DHT22;7960;50.908;4.204;2022-07-24T02:49:22;19.60;99.90
15717;DHT22;7960;50.908;4.204;2022-07-24T02:51:49;19.60;99.90
15717;DHT22;7960;50.908;4.204;2022-07-24T02:54:15;19.50;99.90
15717;DHT22;7960;50.908;4.204;2022-07-24T02:56:42;19.40;99.90
15717;DHT22;7960;50.908;4.204;2022-07-24T02:59:09;19.30;99.90
15717;DHT22;7960;50.908;4.204;2022-07-24T03:01:36;19.20;99.90
15717;DHT22;7960;50.908;4.204;2022-07-24T03:04:05;19.20;99.90
15717;DHT22;7960;50.908;4.204;2022-07-24T03:06:31;18.80;99.90
15717;DHT22;7960;50.908;4.204;2022-07-24T03:09:00;18.80;99.90
15717;DHT22;7960;50.908;4.204;2022-07-24T03:11:27;18.70;99.90
15717;DHT22;7960;50.908;4.204;2022-07-24T03:13:54;18.20;99.90
15717;DHT22;7960;50.908;4.204;2022-07-24T03:16:21;17.90;99.90
15717;DHT22;7960;50.908;4.204;2022-07-24T03:18:48;17.90;99.90
15717;DHT22;7960;50.908;4.204;2022-07-24T03:21:16;17.70;99.90
15717;DHT22;7960;50.908;4.204;2022-07-24T03:23:44;17.80;99.90
15717;DHT22;7960;50.908;4.204;2022-07-24T03:26:11;17.90;99.90
15717;DHT22;7960;50.908;4.204;2022-07-24T03:28:38;17.70;99.90
15717;DHT22;7960;50.908;4.204;2022-07-24T03:31:05;17.70;99.90
15717;DHT22;7960;50.908;4.204;2022-07-24T03:33:32;17.90;99.90
15717;DHT22;7960;50.908;4.204;2022-07-24T03:35:59;17.80;99.90
15717;DHT22;7960;50.908;4.204;2022-07-24T03:38:27;17.90;99.90
15717;DHT22;7960;50.908;4.204;2022-07-24T03:40:54;17.90;99.90
15717;DHT22;7960;50.908;4.204;2022-07-24T03:43:21;17.80;99.90
15717;DHT22;7960;50.908;4.204;2022-07-24T03:45:48;17.90;99.90
15717;DHT22;7960;50.908;4.204;2022-07-24T03:48:15;18.20;99.90
15717;DHT22;7960;50.908;4.204;2022-07-24T03:50:41;18.30;99.90
15717;DHT22;7960;50.908;4.204;2022-07-24T03:53:08;18.50;99.90
15717;DHT22;7960;50.908;4.204;2022-07-24T03:55:36;18.20;99.90
15717;DHT22;7960;50.908;4.204;2022-07-24T03:58:03;17.90;99.90
15717;DHT22;7960;50.908;4.204;2022-07-24T04:00:31;18.10;99.90
15717;DHT22;7960;50.908;4.204;2022-07-24T04:02:58;18.00;99.90
15717;DHT22;7960;50.908;4.204;2022-07-24T04:05:24;18.10;99.90
15717;DHT22;7960;50.908;4.204;2022-07-24T04:07:51;18.20;99.90
15717;DHT22;7960;50.908;4.204;2022-07-24T04:10:18;17.80;99.90
15717;DHT22;7960;50.908;4.204;2022-07-24T04:12:46;17.80;99.90
15717;DHT22;7960;50.908;4.204;2022-07-24T04:15:13;18.20;99.90
15717;DHT22;7960;50.908;4.204;2022-07-24T04:17:41;18.40;99.90
15717;DHT22;7960;50.908;4.204;2022-07-24T04:20:10;18.50;99.90
15717;DHT22;7960;50.908;4.204;2022-07-24T04:22:37;18.50;99.90
15717;DHT22;7960;50.908;4.204;2022-07-24T04:25:06;18.30;99.90
15717;DHT22;7960;50.908;4.204;2022-07-24T04:27:34;18.20;99.90
15717;DHT22;7960;50.908;4.204;2022-07-24T04:30:03;18.20;99.90
15717;DHT22;7960;50.908;4.204;2022-07-24T04:32:30;17.80;99.90
15717;DHT22;7960;50.908;4.204;2022-07-24T04:34:57;17.30;99.90
15717;DHT22;7960;50.908;4.204;2022-07-24T04:37:24;17.30;99.90
15717;DHT22;7960;50.908;4.204;2022-07-24T04:39:51;17.70;99.90
15717;DHT22;7960;50.908;4.204;2022-07-24T04:42:18;18.00;99.90
15717;DHT22;7960;50.908;4.204;2022-07-24T04:44:45;17.80;99.90
15717;DHT22;7960;50.908;4.204;2022-07-24T04:47:13;17.50;99.90
15717;DHT22;7960;50.908;4.204;2022-07-24T04:49:40;17.30;99.90
15717;DHT22;7960;50.908;4.204;2022-07-24T04:52:07;17.20;99.90
15717;DHT22;7960;50.908;4.204;2022-07-24T04:54:33;17.00;99.90
15717;DHT22;7960;50.908;4.204;2022-07-24T04:57:00;17.30;99.90
15717;DHT22;7960;50.908;4.204;2022-07-24T04:59:27;17.20;99.90
15717;DHT22;7960;50.908;4.204;2022-07-24T05:01:54;17.20;99.90
15717;DHT22;7960;50.908;4.204;2022-07-24T05:04:22;17.20;99.90
15717;DHT22;7960;50.908;4.204;2022-07-24T05:06:49;17.10;99.90
15717;DHT22;7960;50.908;4.204;2022-07-24T05:09:16;17.20;99.90
15717;DHT22;7960;50.908;4.204;2022-07-24T05:11:43;17.50;99.90
15717;DHT22;7960;50.908;4.204;2022-07-24T05:14:10;17.80;99.90
15717;DHT22;7960;50.908;4.204;2022-07-24T05:16:37;18.10;99.90
15717;DHT22;7960;50.908;4.204;2022-07-24T05:19:03;18.20;99.90
15717;DHT22;7960;50.908;4.204;2022-07-24T05:21:32;18.00;99.90
15717;DHT22;7960;50.908;4.204;2022-07-24T05:23:58;17.70;99.90
15717;DHT22;7960;50.908;4.204;2022-07-24T05:26:27;18.00;99.90
15717;DHT22;7960;50.908;4.204;2022-07-24T05:28:59;18.20;99.90
15717;DHT22;7960;50.908;4.204;2022-07-24T05:31:29;18.40;99.90
15717;DHT22;7960;50.908;4.204;2022-07-24T05:33:56;18.60;99.90
15717;DHT22;7960;50.908;4.204;2022-07-24T05:36:24;18.70;99.90
15717;DHT22;7960;50.908;4.204;2022-07-24T05:38:52;18.60;99.90
15717;DHT22;7960;50.908;4.204;2022-07-24T05:41:19;18.70;99.90
15717;DHT22;7960;50.908;4.204;2022-07-24T05:43:46;18.80;99.90
15717;DHT22;7960;50.908;4.204;2022-07-24T05:46:13;18.80;99.90
15717;DHT22;7960;50.908;4.204;2022-07-24T05:48:40;18.90;99.90
15717;DHT22;7960;50.908;4.204;2022-07-24T05:51:07;18.90;99.90
15717;DHT22;7960;50.908;4.204;2022-07-24T05:53:33;19.00;99.90
15717;DHT22;7960;50.908;4.204;2022-07-24T05:56:01;19.00;99.90
15717;DHT22;7960;50.908;4.204;2022-07-24T05:58:29;19.10;99.90
15717;DHT22;7960;50.908;4.204;2022-07-24T06:00:56;19.00;99.90
15717;DHT22;7960;50.908;4.204;2022-07-24T06:03:23;19.00;99.90
15717;DHT22;7960;50.908;4.204;2022-07-24T06:05:50;19.20;99.90
15717;DHT22;7960;50.908;4.204;2022-07-24T06:08:17;19.30;99.90
15717;DHT22;7960;50.908;4.204;2022-07-24T06:10:44;19.00;99.90
15717;DHT22;7960;50.908;4.204;2022-07-24T06:13:12;19.20;99.90
15717;DHT22;7960;50.908;4.204;2022-07-24T06:15:39;19.50;99.90
15717;DHT22;7960;50.908;4.204;2022-07-24T06:18:06;19.40;99.90
15717;DHT22;7960;50.908;4.204;2022-07-24T06:20:33;19.50;99.90
15717;DHT22;7960;50.908;4.204;2022-07-24T06:23:00;19.60;99.90
15717;DHT22;7960;50.908;4.204;2022-07-24T06:25:26;19.60;99.90
15717;DHT22;7960;50.908;4.204;2022-07-24T06:27:55;19.70;99.90
15717;DHT22;7960;50.908;4.204;2022-07-24T06:30:26;19.80;99.90
15717;DHT22;7960;50.908;4.204;2022-07-24T06:32:55;19.70;99.90
15717;DHT22;7960;50.908;4.204;2022-07-24T06:35:22;19.80;99.90
15717;DHT22;7960;50.908;4.204;2022-07-24T06:37:49;19.90;99.90
15717;DHT22;7960;50.908;4.204;2022-07-24T06:40:17;20.00;99.90
15717;DHT22;7960;50.908;4.204;2022-07-24T06:42:46;20.10;99.90
15717;DHT22;7960;50.908;4.204;2022-07-24T06:45:13;20.20;99.90
15717;DHT22;7960;50.908;4.204;2022-07-24T06:47:42;20.30;99.90
15717;DHT22;7960;50.908;4.204;2022-07-24T06:50:09;20.40;99.90
15717;DHT22;7960;50.908;4.204;2022-07-24T06:52:36;20.40;99.90
15717;DHT22;7960;50.908;4.204;2022-07-24T06:55:04;20.50;99.90
15717;DHT22;7960;50.908;4.204;2022-07-24T06:57:32;20.50;99.90
15717;DHT22;7960;50.908;4.204;2022-07-24T06:59:59;20.40;99.90
15717;DHT22;7960;50.908;4.204;2022-07-24T07:02:26;20.40;99.90
15717;DHT22;7960;50.908;4.204;2022-07-24T07:04:54;20.50;99.90
15717;DHT22;7960;50.908;4.204;2022-07-24T07:07:21;20.60;99.90
15717;DHT22;7960;50.908;4.204;2022-07-24T07:09:49;20.70;99.90
15717;DHT22;7960;50.908;4.204;2022-07-24T07:12:16;20.60;99.90
15717;DHT22;7960;50.908;4.204;2022-07-24T07:14:43;20.50;99.90
15717;DHT22;7960;50.908;4.204;2022-07-24T07:17:10;20.60;99.90
15717;DHT22;7960;50.908;4.204;2022-07-24T07:19:37;20.70;99.90
15717;DHT22;7960;50.908;4.204;2022-07-24T07:22:05;21.00;99.90
15717;DHT22;7960;50.908;4.204;2022-07-24T07:24:32;21.10;99.90
15717;DHT22;7960;50.908;4.204;2022-07-24T07:26:59;21.20;99.90
15717;DHT22;7960;50.908;4.204;2022-07-24T07:29:26;21.30;99.90
15717;DHT22;7960;50.908;4.204;2022-07-24T07:31:53;21.40;99.90
15717;DHT22;7960;50.908;4.204;2022-07-24T07:34:20;21.50;99.90
15717;DHT22;7960;50.908;4.204;2022-07-24T07:36:46;21.50;99.90
15717;DHT22;7960;50.908;4.204;2022-07-24T07:39:15;21.60;99.90
15717;DHT22;7960;50.908;4.204;2022-07-24T07:41:41;21.70;99.90
15717;DHT22;7960;50.908;4.204;2022-07-24T07:44:08;21.80;99.90
15717;DHT22;7960;50.908;4.204;2022-07-24T07:46:35;21.80;99.90
15717;DHT22;7960;50.908;4.204;2022-07-24T07:49:02;21.90;99.90
15717;DHT22;7960;50.908;4.204;2022-07-24T07:51:29;22.00;99.90
15717;DHT22;7960;50.908;4.204;2022-07-24T07:53:56;22.00;99.90
15717;DHT22;7960;50.908;4.204;2022-07-24T07:56:24;22.10;99.90
15717;DHT22;7960;50.908;4.204;2022-07-24T07:58:51;22.00;99.90
15717;DHT22;7960;50.908;4.204;2022-07-24T08:01:18;22.20;99.90
15717;DHT22;7960;50.908;4.204;2022-07-24T08:03:45;22.30;99.90
15717;DHT22;7960;50.908;4.204;2022-07-24T08:06:12;22.30;99.90
15717;DHT22;7960;50.908;4.204;2022-07-24T08:08:38;22.40;99.90
15717;DHT22;7960;50.908;4.204;2022-07-24T08:11:05;22.40;99.90
15717;DHT22;7960;50.908;4.204;2022-07-24T08:13:34;22.50;99.90
15717;DHT22;7960;50.908;4.204;2022-07-24T08:16:00;22.60;99.90
15717;DHT22;7960;50.908;4.204;2022-07-24T08:18:28;22.60;99.90
15717;DHT22;7960;50.908;4.204;2022-07-24T08:20:54;22.60;99.90
15717;DHT22;7960;50.908;4.204;2022-07-24T08:23:21;22.80;99.90
15717;DHT22;7960;50.908;4.204;2022-07-24T08:25:48;22.90;99.90
15717;DHT22;7960;50.908;4.204;2022-07-24T08:28:15;23.00;99.90
15717;DHT22;7960;50.908;4.204;2022-07-24T08:30:44;23.00;99.90
15717;DHT22;7960;50.908;4.204;2022-07-24T08:33:10;23.10;99.90
15717;DHT22;7960;50.908;4.204;2022-07-24T08:35:37;23.10;99.90
15717;DHT22;7960;50.908;4.204;2022-07-24T08:38:04;23.30;99.90
15717;DHT22;7960;50.908;4.204;2022-07-24T08:40:33;23.30;99.90
15717;DHT22;7960;50.908;4.204;2022-07-24T08:43:01;23.30;99.90
15717;DHT22;7960;50.908;4.204;2022-07-24T08:45:29;23.30;99.90
15717;DHT22;7960;50.908;4.204;2022-07-24T08:48:02;23.40;99.90
15717;DHT22;7960;50.908;4.204;2022-07-24T08:50:30;23.50;99.90
15717;DHT22;7960;50.908;4.204;2022-07-24T08:52:58;23.60;99.90
15717;DHT22;7960;50.908;4.204;2022-07-24T08:55:26;23.70;99.90
15717;DHT22;7960;50.908;4.204;2022-07-24T08:57:55;23.80;99.90
15717;DHT22;7960;50.908;4.204;2022-07-24T09:00:22;23.90;99.90
15717;DHT22;7960;50.908;4.204;2022-07-24T09:02:49;23.90;99.90
15717;DHT22;7960;50.908;4.204;2022-07-24T09:05:17;24.10;99.90
15717;DHT22;7960;50.908;4.204;2022-07-24T09:07:44;24.20;99.90
15717;DHT22;7960;50.908;4.204;2022-07-24T09:10:12;24.20;99.90
15717;DHT22;7960;50.908;4.204;2022-07-24T09:12:41;24.30;99.90
15717;DHT22;7960;50.908;4.204;2022-07-24T09:15:12;24.40;99.90
15717;DHT22;7960;50.908;4.204;2022-07-24T09:17:47;24.40;99.90
15717;DHT22;7960;50.908;4.204;2022-07-24T09:20:15;24.70;99.90
15717;DHT22;7960;50.908;4.204;2022-07-24T09:22:43;24.90;99.90
15717;DHT22;7960;50.908;4.204;2022-07-24T09:25:14;25.00;99.90
15717;DHT22;7960;50.908;4.204;2022-07-24T09:27:47;25.10;99.90
15717;DHT22;7960;50.908;4.204;2022-07-24T09:30:27;25.10;99.90
15717;DHT22;7960;50.908;4.204;2022-07-24T09:32:55;25.20;99.90
15717;DHT22;7960;50.908;4.204;2022-07-24T09:35:28;25.20;99.90
15717;DHT22;7960;50.908;4.204;2022-07-24T09:37:58;25.30;99.90
15717;DHT22;7960;50.908;4.204;2022-07-24T09:40:29;25.40;99.90
15717;DHT22;7960;50.908;4.204;2022-07-24T09:43:15;25.60;99.90
15717;DHT22;7960;50.908;4.204;2022-07-24T09:45:57;25.70;99.90
15717;DHT22;7960;50.908;4.204;2022-07-24T09:48:27;25.80;99.90
15717;DHT22;7960;50.908;4.204;2022-07-24T09:50:55;25.90;99.90
15717;DHT22;7960;50.908;4.204;2022-07-24T09:53:26;25.90;99.90
15717;DHT22;7960;50.908;4.204;2022-07-24T09:55:57;26.20;99.90
15717;DHT22;7960;50.908;4.204;2022-07-24T09:58:25;26.10;99.90
15717;DHT22;7960;50.908;4.204;2022-07-24T10:00:54;26.40;99.90
15717;DHT22;7960;50.908;4.204;2022-07-24T10:03:24;26.40;99.90
15717;DHT22;7960;50.908;4.204;2022-07-24T10:05:54;26.40;99.90
15717;DHT22;7960;50.908;4.204;2022-07-24T10:08:22;26.50;99.90
15717;DHT22;7960;50.908;4.204;2022-07-24T10:10:50;26.60;99.90
15717;DHT22;7960;50.908;4.204;2022-07-24T10:13:18;26.70;99.90
15717;DHT22;7960;50.908;4.204;2022-07-24T10:15:51;26.80;99.90
15717;DHT22;7960;50.908;4.204;2022-07-24T10:18:19;26.90;99.90
15717;DHT22;7960;50.908;4.204;2022-07-24T10:20:48;27.00;99.90
15717;DHT22;7960;50.908;4.204;2022-07-24T10:23:21;27.10;99.90
15717;DHT22;7960;50.908;4.204;2022-07-24T10:25:56;27.20;99.90
15717;DHT22;7960;50.908;4.204;2022-07-24T10:28:36;27.10;99.90
15717;DHT22;7960;50.908;4.204;2022-07-24T10:31:08;27.20;99.90
15717;DHT22;7960;50.908;4.204;2022-07-24T10:33:37;27.20;99.90
15717;DHT22;7960;50.908;4.204;2022-07-24T10:36:12;27.40;99.90
15717;DHT22;7960;50.908;4.204;2022-07-24T10:38:48;27.50;99.90
15717;DHT22;7960;50.908;4.204;2022-07-24T10:41:24;27.70;99.90
15717;DHT22;7960;50.908;4.204;2022-07-24T10:44:13;27.70;99.90
15717;DHT22;7960;50.908;4.204;2022-07-24T10:47:01;27.80;99.90
15717;DHT22;7960;50.908;4.204;2022-07-24T10:49:46;27.90;99.90
15717;DHT22;7960;50.908;4.204;2022-07-24T10:52:27;27.90;99.90
15717;DHT22;7960;50.908;4.204;2022-07-24T10:55:19;27.80;99.90
15717;DHT22;7960;50.908;4.204;2022-07-24T10:57:50;27.90;99.90
15717;DHT22;7960;50.908;4.204;2022-07-24T11:00:24;27.90;99.90
15717;DHT22;7960;50.908;4.204;2022-07-24T11:02:56;28.10;99.90
15717;DHT22;7960;50.908;4.204;2022-07-24T11:05:24;28.10;99.90
15717;DHT22;7960;50.908;4.204;2022-07-24T11:08:25;28.10;99.70
15717;DHT22;7960;50.908;4.204;2022-07-24T11:10:58;28.10;99.90
15717;DHT22;7960;50.908;4.204;2022-07-24T11:13:49;28.20;99.90
15717;DHT22;7960;50.908;4.204;2022-07-24T11:16:22;28.30;99.60
15717;DHT22;7960;50.908;4.204;2022-07-24T11:19:27;28.30;99.30
15717;DHT22;7960;50.908;4.204;2022-07-24T11:22:11;28.10;99.60
15717;DHT22;7960;50.908;4.204;2022-07-24T11:24:48;28.40;99.40
15717;DHT22;7960;50.908;4.204;2022-07-24T11:27:44;28.60;99.10
15717;DHT22;7960;50.908;4.204;2022-07-24T11:30:14;28.80;98.90
15717;DHT22;7960;50.908;4.204;2022-07-24T11:32:42;28.90;99.00
15717;DHT22;7960;50.908;4.204;2022-07-24T11:35:09;29.00;98.70
15717;DHT22;7960;50.908;4.204;2022-07-24T11:37:37;29.20;98.60
15717;DHT22;7960;50.908;4.204;2022-07-24T11:40:06;29.30;98.50
15717;DHT22;7960;50.908;4.204;2022-07-24T11:42:33;29.10;97.90
15717;DHT22;7960;50.908;4.204;2022-07-24T11:45:00;29.10;98.30
15717;DHT22;7960;50.908;4.204;2022-07-24T11:47:29;29.10;98.20
15717;DHT22;7960;50.908;4.204;2022-07-24T11:49:58;29.20;98.30
15717;DHT22;7960;50.908;4.204;2022-07-24T11:52:28;29.20;98.10
15717;DHT22;7960;50.908;4.204;2022-07-24T11:55:00;29.20;98.20
15717;DHT22;7960;50.908;4.204;2022-07-24T11:57:29;29.20;97.80
15717;DHT22;7960;50.908;4.204;2022-07-24T11:59:57;29.30;98.20
15717;DHT22;7960;50.908;4.204;2022-07-24T12:02:24;29.50;98.00
15717;DHT22;7960;50.908;4.204;2022-07-24T12:04:53;29.60;98.30
15717;DHT22;7960;50.908;4.204;2022-07-24T12:07:22;29.70;98.00
15717;DHT22;7960;50.908;4.204;2022-07-24T12:09:52;29.70;97.60
15717;DHT22;7960;50.908;4.204;2022-07-24T12:12:24;29.70;97.80
15717;DHT22;7960;50.908;4.204;2022-07-24T12:14:53;29.80;97.90
15717;DHT22;7960;50.908;4.204;2022-07-24T12:17:20;29.80;97.20
15717;DHT22;7960;50.908;4.204;2022-07-24T12:19:53;29.90;97.10
15717;DHT22;7960;50.908;4.204;2022-07-24T12:22:21;30.10;97.20
15717;DHT22;7960;50.908;4.204;2022-07-24T12:24:49;30.40;97.20
15717;DHT22;7960;50.908;4.204;2022-07-24T12:27:38;29.90;96.90
15717;DHT22;7960;50.908;4.204;2022-07-24T12:30:21;30.20;96.90
15717;DHT22;7960;50.908;4.204;2022-07-24T12:32:57;30.60;96.60
15717;DHT22;7960;50.908;4.204;2022-07-24T12:35:27;30.20;96.00
15717;DHT22;7960;50.908;4.204;2022-07-24T12:37:55;30.40;96.40
15717;DHT22;7960;50.908;4.204;2022-07-24T12:40:24;30.70;96.40
15717;DHT22;7960;50.908;4.204;2022-07-24T12:42:59;30.80;95.70
15717;DHT22;7960;50.908;4.204;2022-07-24T12:45:26;30.90;94.70
15717;DHT22;7960;50.908;4.204;2022-07-24T12:48:08;30.40;94.90
15717;DHT22;7960;50.908;4.204;2022-07-24T12:50:37;30.80;95.60
15717;DHT22;7960;50.908;4.204;2022-07-24T12:53:04;31.10;95.00
15717;DHT22;7960;50.908;4.204;2022-07-24T12:55:32;31.30;94.70
15717;DHT22;7960;50.908;4.204;2022-07-24T12:57:59;31.00;94.40
15717;DHT22;7960;50.908;4.204;2022-07-24T13:00:27;30.80;94.40
15717;DHT22;7960;50.908;4.204;2022-07-24T13:02:54;30.90;94.60
15717;DHT22;7960;50.908;4.204;2022-07-24T13:08:17;31.10;94.50
15717;DHT22;7960;50.908;4.204;2022-07-24T13:10:44;31.70;93.50
15717;DHT22;7960;50.908;4.204;2022-07-24T13:13:10;31.70;93.10
15717;DHT22;7960;50.908;4.204;2022-07-24T13:15:37;31.90;93.10
15717;DHT22;7960;50.908;4.204;2022-07-24T13:18:04;32.10;93.30
15717;DHT22;7960;50.908;4.204;2022-07-24T13:20:31;31.70;92.50
15717;DHT22;7960;50.908;4.204;2022-07-24T13:22:58;31.20;93.00
15717;DHT22;7960;50.908;4.204;2022-07-24T13:25:26;31.60;93.10
15717;DHT22;7960;50.908;4.204;2022-07-24T13:27:53;31.80;92.70
15717;DHT22;7960;50.908;4.204;2022-07-24T13:30:20;32.30;92.60
15717;DHT22;7960;50.908;4.204;2022-07-24T13:32:49;32.40;91.90
15717;DHT22;7960;50.908;4.204;2022-07-24T13:35:16;32.20;92.10
15717;DHT22;7960;50.908;4.204;2022-07-24T13:37:43;32.10;92.10
15717;DHT22;7960;50.908;4.204;2022-07-24T13:40:10;32.10;91.50
15717;DHT22;7960;50.908;4.204;2022-07-24T13:42:39;32.30;92.00
15717;DHT22;7960;50.908;4.204;2022-07-24T13:45:07;32.40;91.40
15717;DHT22;7960;50.908;4.204;2022-07-24T13:47:34;32.90;91.80
15717;DHT22;7960;50.908;4.204;2022-07-24T13:50:01;33.00;90.90
15717;DHT22;7960;50.908;4.204;2022-07-24T13:52:28;33.10;90.80
15717;DHT22;7960;50.908;4.204;2022-07-24T13:54:55;33.10;90.60
15717;DHT22;7960;50.908;4.204;2022-07-24T13:57:22;33.20;90.80
15717;DHT22;7960;50.908;4.204;2022-07-24T13:59:50;33.40;90.30
15717;DHT22;7960;50.908;4.204;2022-07-24T14:02:17;33.20;90.40
15717;DHT22;7960;50.908;4.204;2022-07-24T14:04:44;33.40;90.90
15717;DHT22;7960;50.908;4.204;2022-07-24T14:07:12;33.40;90.80
15717;DHT22;7960;50.908;4.204;2022-07-24T14:09:39;33.70;90.40
15717;DHT22;7960;50.908;4.204;2022-07-24T14:12:06;33.90;90.10
15717;DHT22;7960;50.908;4.204;2022-07-24T14:14:33;33.70;89.50
15717;DHT22;7960;50.908;4.204;2022-07-24T14:17:01;33.90;89.60
15717;DHT22;7960;50.908;4.204;2022-07-24T14:19:28;33.80;89.90
15717;DHT22;7960;50.908;4.204;2022-07-24T14:21:55;33.90;88.80
15717;DHT22;7960;50.908;4.204;2022-07-24T14:24:22;33.90;88.40
15717;DHT22;7960;50.908;4.204;2022-07-24T14:26:49;34.00;88.70
15717;DHT22;7960;50.908;4.204;2022-07-24T14:29:16;34.20;87.40
15717;DHT22;7960;50.908;4.204;2022-07-24T14:31:43;33.90;88.10
15717;DHT22;7960;50.908;4.204;2022-07-24T14:34:11;34.00;88.50
15717;DHT22;7960;50.908;4.204;2022-07-24T14:36:38;33.80;88.60
15717;DHT22;7960;50.908;4.204;2022-07-24T14:39:05;33.70;87.90
15717;DHT22;7960;50.908;4.204;2022-07-24T14:41:32;33.40;87.10
15717;DHT22;7960;50.908;4.204;2022-07-24T14:43:59;33.50;87.30
15717;DHT22;7960;50.908;4.204;2022-07-24T14:46:26;33.70;86.80
15717;DHT22;7960;50.908;4.204;2022-07-24T14:48:53;34.10;87.70
15717;DHT22;7960;50.908;4.204;2022-07-24T14:51:21;34.60;85.30
15717;DHT22;7960;50.908;4.204;2022-07-24T14:53:48;34.20;85.40
15717;DHT22;7960;50.908;4.204;2022-07-24T14:56:15;33.70;86.40
15717;DHT22;7960;50.908;4.204;2022-07-24T14:58:42;33.90;86.50
15717;DHT22;7960;50.908;4.204;2022-07-24T15:01:08;34.10;85.60
15717;DHT22;7960;50.908;4.204;2022-07-24T15:03:35;34.70;85.10
15717;DHT22;7960;50.908;4.204;2022-07-24T15:06:02;34.80;83.80
15717;DHT22;7960;50.908;4.204;2022-07-24T15:08:31;34.90;84.40
15717;DHT22;7960;50.908;4.204;2022-07-24T15:10:58;35.00;84.30
15717;DHT22;7960;50.908;4.204;2022-07-24T15:13:25;35.00;83.90
15717;DHT22;7960;50.908;4.204;2022-07-24T15:15:51;34.50;83.90
15717;DHT22;7960;50.908;4.204;2022-07-24T15:18:19;34.30;83.40
15717;DHT22;7960;50.908;4.204;2022-07-24T15:20:46;34.30;83.40
15717;DHT22;7960;50.908;4.204;2022-07-24T15:23:13;33.40;84.10
15717;DHT22;7960;50.908;4.204;2022-07-24T15:25:41;33.40;85.80
15717;DHT22;7960;50.908;4.204;2022-07-24T15:28:08;34.00;84.70
15717;DHT22;7960;50.908;4.204;2022-07-24T15:30:35;34.20;84.40
15717;DHT22;7960;50.908;4.204;2022-07-24T15:33:02;34.30;82.90
15717;DHT22;7960;50.908;4.204;2022-07-24T15:35:29;33.60;84.00
15717;DHT22;7960;50.908;4.204;2022-07-24T15:37:56;34.30;83.80
15717;DHT22;7960;50.908;4.204;2022-07-24T15:40:23;34.30;83.60
15717;DHT22;7960;50.908;4.204;2022-07-24T15:42:53;34.70;82.50
15717;DHT22;7960;50.908;4.204;2022-07-24T15:45:21;34.40;82.10
15717;DHT22;7960;50.908;4.204;2022-07-24T15:47:48;34.60;81.00
15717;DHT22;7960;50.908;4.204;2022-07-24T15:50:14;34.90;80.80
15717;DHT22;7960;50.908;4.204;2022-07-24T15:52:41;34.90;81.00
15717;DHT22;7960;50.908;4.204;2022-07-24T15:55:09;34.60;80.40
15717;DHT22;7960;50.908;4.204;2022-07-24T15:57:36;34.20;80.90